sensor_id;sensor_type;location;lat;lon;timestamp;P1;durP1;ratioP1;P2;durP2;ratioP2
47009;SDS011;59230;54.164;-3.124;2022-08-01T00:01:59;14.73;;;2.58;;
47009;SDS011;59230;54.164;-3.124;2022-08-01T00:04:24;17.08;;;2.25;;
47009;SDS011;59230;54.164;-3.124;2022-08-01T00:06:50;16.35;;;2.92;;
47009;SDS011;59230;54.164;-3.124;2022-08-01T00:09:15;21.65;;;2.83;;
47009;SDS011;59230;54.164;-3.124;2022-08-01T00:11:41;20.10;;;2.20;;
47009;SDS011;59230;54.164;-3.124;2022-08-01T00:14:07;18.88;;;3.20;;
47009;SDS011;59230;54.164;-3.124;2022-08-01T00:16:34;22.35;;;3.80;;
47009;SDS011;59230;54.164;-3.124;2022-08-01T00:19:00;20.85;;;4.20;;
47009;SDS011;59230;54.164;-3.124;2022-08-01T00:21:26;26.45;;;3.38;;
47009;SDS011;59230;54.164;-3.124;2022-08-01T00:23:51;20.83;;;3.90;;
47009;SDS011;59230;54.164;-3.124;2022-08-01T00:26:17;18.98;;;3.60;;
47009;SDS011;59230;54.164;-3.124;2022-08-01T00:28:42;27.55;;;3.72;;
47009;SDS011;59230;54.164;-3.124;2022-08-01T00:31:08;16.40;;;3.53;;
47009;SDS011;59230;54.164;-3.124;2022-08-01T00:33:33;25.42;;;5.20;;
47009;SDS011;59230;54.164;-3.124;2022-08-01T00:35:59;17.23;;;3.63;;
47009;SDS011;59230;54.164;-3.124;2022-08-01T00:38:24;22.33;;;3.15;;
47009;SDS011;59230;54.164;-3.124;2022-08-01T00:40:50;25.23;;;3.72;;
47009;SDS011;59230;54.164;-3.124;2022-08-01T00:43:15;25.42;;;4.10;;
47009;SDS011;59230;54.164;-3.124;2022-08-01T00:45:41;24.92;;;4.60;;
47009;SDS011;59230;54.164;-3.124;2022-08-01T00:48:07;18.35;;;4.82;;
47009;SDS011;59230;54.164;-3.124;2022-08-01T00:50:32;29.85;;;4.68;;
47009;SDS011;59230;54.164;-3.124;2022-08-01T00:52:58;18.38;;;4.60;;
47009;SDS011;59230;54.164;-3.124;2022-08-01T00:55:24;18.52;;;3.50;;
47009;SDS011;59230;54.164;-3.124;2022-08-01T00:57:51;17.65;;;3.35;;
47009;SDS011;59230;54.164;-3.124;2022-08-01T01:00:17;17.75;;;3.17;;
47009;SDS011;59230;54.164;-3.124;2022-08-01T01:02:43;17.95;;;2.80;;
47009;SDS011;59230;54.164;-3.124;2022-08-01T01:05:08;19.90;;;3.45;;
47009;SDS011;59230;54.164;-3.124;2022-08-01T01:07:38;17.83;;;3.40;;
47009;SDS011;59230;54.164;-3.124;2022-08-01T01:10:17;15.77;;;3.15;;
47009;SDS011;59230;54.164;-3.124;2022-08-01T01:13:51;17.67;;;3.20;;
47009;SDS011;59230;54.164;-3.124;2022-08-01T01:16:06;19.65;;;3.30;;
47009;SDS011;59230;54.164;-3.124;2022-08-01T01:18:37;19.00;;;3.70;;
47009;SDS011;59230;54.164;-3.124;2022-08-01T01:21:12;24.52;;;3.90;;
47009;SDS011;59230;54.164;-3.124;2022-08-01T01:24:03;13.18;;;3.03;;
47009;SDS011;59230;54.164;-3.124;2022-08-01T01:29:28;27.33;;;3.25;;
47009;SDS011;59230;54.164;-3.124;2022-08-01T01:34:59;15.52;;;2.92;;
47009;SDS011;59230;54.164;-3.124;2022-08-01T01:37:25;21.98;;;3.03;;
47009;SDS011;59230;54.164;-3.124;2022-08-01T01:39:52;26.13;;;2.90;;
47009;SDS011;59230;54.164;-3.124;2022-08-01T01:42:18;15.82;;;2.47;;
47009;SDS011;59230;54.164;-3.124;2022-08-01T01:44:45;26.65;;;3.20;;
47009;SDS011;59230;54.164;-3.124;2022-08-01T01:47:12;22.92;;;2.80;;
47009;SDS011;59230;54.164;-3.124;2022-08-01T01:49:38;28.88;;;3.10;;
47009;SDS011;59230;54.164;-3.124;2022-08-01T01:52:04;19.95;;;2.42;;
47009;SDS011;59230;54.164;-3.124;2022-08-01T01:54:31;20.80;;;3.75;;
47009;SDS011;59230;54.164;-3.124;2022-08-01T01:57:02;20.27;;;3.17;;
47009;SDS011;59230;54.164;-3.124;2022-08-01T01:59:30;19.83;;;2.97;;
47009;SDS011;59230;54.164;-3.124;2022-08-01T02:01:58;15.18;;;2.42;;
47009;SDS011;59230;54.164;-3.124;2022-08-01T02:04:25;20.55;;;3.10;;
47009;SDS011;59230;54.164;-3.124;2022-08-01T02:06:51;17.30;;;3.05;;
47009;SDS011;59230;54.164;-3.124;2022-08-01T02:09:18;18.83;;;2.78;;
47009;SDS011;59230;54.164;-3.124;2022-08-01T02:11:46;19.02;;;3.03;;
47009;SDS011;59230;54.164;-3.124;2022-08-01T02:14:13;33.28;;;4.07;;
47009;SDS011;59230;54.164;-3.124;2022-08-01T02:16:40;18.77;;;3.92;;
47009;SDS011;59230;54.164;-3.124;2022-08-01T02:19:07;23.13;;;4.53;;
47009;SDS011;59230;54.164;-3.124;2022-08-01T02:21:34;22.17;;;4.00;;
47009;SDS011;59230;54.164;-3.124;2022-08-01T02:24:12;22.05;;;3.30;;
47009;SDS011;59230;54.164;-3.124;2022-08-01T02:26:43;18.42;;;3.10;;
47009;SDS011;59230;54.164;-3.124;2022-08-01T02:29:13;19.80;;;3.30;;
47009;SDS011;59230;54.164;-3.124;2022-08-01T02:31:42;18.88;;;2.83;;
47009;SDS011;59230;54.164;-3.124;2022-08-01T02:34:13;21.83;;;2.33;;
47009;SDS011;59230;54.164;-3.124;2022-08-01T02:36:40;16.02;;;2.70;;
47009;SDS011;59230;54.164;-3.124;2022-08-01T02:39:08;15.93;;;2.35;;
47009;SDS011;59230;54.164;-3.124;2022-08-01T02:41:36;19.75;;;3.15;;
47009;SDS011;59230;54.164;-3.124;2022-08-01T02:44:05;16.80;;;2.15;;
47009;SDS011;59230;54.164;-3.124;2022-08-01T02:46:43;18.55;;;2.25;;
47009;SDS011;59230;54.164;-3.124;2022-08-01T02:49:11;28.33;;;3.75;;
47009;SDS011;59230;54.164;-3.124;2022-08-01T02:51:38;20.13;;;2.38;;
47009;SDS011;59230;54.164;-3.124;2022-08-01T02:54:05;20.45;;;2.75;;
47009;SDS011;59230;54.164;-3.124;2022-08-01T02:56:32;24.70;;;2.80;;
47009;SDS011;59230;54.164;-3.124;2022-08-01T02:59:05;18.95;;;2.42;;
47009;SDS011;59230;54.164;-3.124;2022-08-01T03:04:00;19.40;;;2.80;;
47009;SDS011;59230;54.164;-3.124;2022-08-01T03:06:26;18.23;;;2.40;;
47009;SDS011;59230;54.164;-3.124;2022-08-01T03:08:52;17.27;;;2.75;;
47009;SDS011;59230;54.164;-3.124;2022-08-01T03:11:18;14.25;;;2.17;;
47009;SDS011;59230;54.164;-3.124;2022-08-01T03:13:46;16.67;;;2.65;;
47009;SDS011;59230;54.164;-3.124;2022-08-01T03:16:13;21.85;;;2.22;;
47009;SDS011;59230;54.164;-3.124;2022-08-01T03:18:40;19.75;;;2.45;;
47009;SDS011;59230;54.164;-3.124;2022-08-01T03:21:06;21.00;;;2.20;;
47009;SDS011;59230;54.164;-3.124;2022-08-01T03:23:33;17.35;;;2.78;;
47009;SDS011;59230;54.164;-3.124;2022-08-01T03:26:00;27.17;;;3.20;;
47009;SDS011;59230;54.164;-3.124;2022-08-01T03:28:27;14.45;;;2.30;;
47009;SDS011;59230;54.164;-3.124;2022-08-01T03:30:52;15.30;;;2.40;;
47009;SDS011;59230;54.164;-3.124;2022-08-01T03:33:18;17.27;;;2.85;;
47009;SDS011;59230;54.164;-3.124;2022-08-01T03:35:48;19.17;;;2.90;;
47009;SDS011;59230;54.164;-3.124;2022-08-01T03:38:17;13.82;;;2.72;;
47009;SDS011;59230;54.164;-3.124;2022-08-01T03:40:47;9.57;;;2.05;;
47009;SDS011;59230;54.164;-3.124;2022-08-01T03:43:19;15.75;;;2.45;;
47009;SDS011;59230;54.164;-3.124;2022-08-01T03:45:49;17.42;;;2.15;;
47009;SDS011;59230;54.164;-3.124;2022-08-01T03:48:16;19.13;;;2.67;;
47009;SDS011;59230;54.164;-3.124;2022-08-01T03:50:45;12.02;;;2.47;;
47009;SDS011;59230;54.164;-3.124;2022-08-01T03:53:13;20.38;;;2.58;;
47009;SDS011;59230;54.164;-3.124;2022-08-01T03:55:39;16.48;;;2.83;;
47009;SDS011;59230;54.164;-3.124;2022-08-01T03:58:06;9.70;;;2.20;;
47009;SDS011;59230;54.164;-3.124;2022-08-01T04:00:33;18.88;;;2.67;;
47009;SDS011;59230;54.164;-3.124;2022-08-01T04:02:58;19.90;;;2.60;;
47009;SDS011;59230;54.164;-3.124;2022-08-01T04:05:24;12.32;;;2.10;;
47009;SDS011;59230;54.164;-3.124;2022-08-01T04:07:50;16.67;;;2.78;;
47009;SDS011;59230;54.164;-3.124;2022-08-01T04:10:27;16.88;;;2.70;;
47009;SDS011;59230;54.164;-3.124;2022-08-01T04:12:52;12.68;;;2.60;;
47009;SDS011;59230;54.164;-3.124;2022-08-01T04:15:18;16.05;;;3.00;;
47009;SDS011;59230;54.164;-3.124;2022-08-01T04:17:45;21.92;;;2.70;;
47009;SDS011;59230;54.164;-3.124;2022-08-01T04:20:14;15.95;;;2.17;;
47009;SDS011;59230;54.164;-3.124;2022-08-01T04:22:40;22.40;;;2.53;;
47009;SDS011;59230;54.164;-3.124;2022-08-01T04:25:15;16.63;;;2.33;;
47009;SDS011;59230;54.164;-3.124;2022-08-01T04:27:46;13.25;;;2.88;;
47009;SDS011;59230;54.164;-3.124;2022-08-01T04:30:13;17.83;;;2.50;;
47009;SDS011;59230;54.164;-3.124;2022-08-01T04:32:40;13.20;;;2.28;;
47009;SDS011;59230;54.164;-3.124;2022-08-01T04:35:07;8.60;;;2.13;;
47009;SDS011;59230;54.164;-3.124;2022-08-01T04:37:35;10.82;;;2.00;;
47009;SDS011;59230;54.164;-3.124;2022-08-01T04:40:02;15.95;;;1.80;;
47009;SDS011;59230;54.164;-3.124;2022-08-01T04:42:30;12.98;;;2.50;;
47009;SDS011;59230;54.164;-3.124;2022-08-01T04:44:57;14.68;;;2.35;;
47009;SDS011;59230;54.164;-3.124;2022-08-01T04:47:22;12.40;;;2.20;;
47009;SDS011;59230;54.164;-3.124;2022-08-01T04:49:48;15.15;;;2.75;;
47009;SDS011;59230;54.164;-3.124;2022-08-01T04:52:14;12.57;;;2.63;;
47009;SDS011;59230;54.164;-3.124;2022-08-01T04:54:40;14.73;;;2.30;;
47009;SDS011;59230;54.164;-3.124;2022-08-01T04:57:05;12.75;;;2.40;;
47009;SDS011;59230;54.164;-3.124;2022-08-01T04:59:34;10.57;;;2.03;;
47009;SDS011;59230;54.164;-3.124;2022-08-01T05:02:12;11.30;;;2.55;;
47009;SDS011;59230;54.164;-3.124;2022-08-01T05:04:40;13.48;;;2.05;;
47009;SDS011;59230;54.164;-3.124;2022-08-01T05:07:06;12.48;;;2.28;;
47009;SDS011;59230;54.164;-3.124;2022-08-01T05:09:32;14.38;;;2.38;;
47009;SDS011;59230;54.164;-3.124;2022-08-01T05:11:58;13.10;;;2.55;;
47009;SDS011;59230;54.164;-3.124;2022-08-01T05:14:26;11.20;;;2.78;;
47009;SDS011;59230;54.164;-3.124;2022-08-01T05:16:52;17.08;;;2.63;;
47009;SDS011;59230;54.164;-3.124;2022-08-01T05:19:17;16.27;;;2.53;;
47009;SDS011;59230;54.164;-3.124;2022-08-01T05:21:43;11.38;;;2.05;;
47009;SDS011;59230;54.164;-3.124;2022-08-01T05:24:08;13.73;;;2.47;;
47009;SDS011;59230;54.164;-3.124;2022-08-01T05:26:34;26.60;;;2.97;;
47009;SDS011;59230;54.164;-3.124;2022-08-01T05:28:59;16.40;;;3.10;;
47009;SDS011;59230;54.164;-3.124;2022-08-01T05:31:25;11.40;;;2.60;;
47009;SDS011;59230;54.164;-3.124;2022-08-01T05:33:50;12.35;;;2.55;;
47009;SDS011;59230;54.164;-3.124;2022-08-01T05:36:21;18.75;;;2.30;;
47009;SDS011;59230;54.164;-3.124;2022-08-01T05:38:47;18.45;;;2.85;;
47009;SDS011;59230;54.164;-3.124;2022-08-01T05:41:12;11.70;;;2.53;;
47009;SDS011;59230;54.164;-3.124;2022-08-01T05:43:38;11.32;;;2.22;;
47009;SDS011;59230;54.164;-3.124;2022-08-01T05:46:03;14.35;;;2.42;;
47009;SDS011;59230;54.164;-3.124;2022-08-01T05:48:29;16.85;;;2.25;;
47009;SDS011;59230;54.164;-3.124;2022-08-01T05:50:55;13.75;;;2.25;;
47009;SDS011;59230;54.164;-3.124;2022-08-01T05:53:20;14.68;;;2.45;;
47009;SDS011;59230;54.164;-3.124;2022-08-01T05:55:46;14.82;;;2.45;;
47009;SDS011;59230;54.164;-3.124;2022-08-01T05:58:12;20.35;;;2.40;;
47009;SDS011;59230;54.164;-3.124;2022-08-01T06:00:37;15.93;;;2.58;;
47009;SDS011;59230;54.164;-3.124;2022-08-01T06:03:03;8.65;;;2.03;;
47009;SDS011;59230;54.164;-3.124;2022-08-01T06:05:28;17.13;;;2.58;;
47009;SDS011;59230;54.164;-3.124;2022-08-01T06:07:54;13.77;;;2.33;;
47009;SDS011;59230;54.164;-3.124;2022-08-01T06:10:19;13.20;;;2.60;;
47009;SDS011;59230;54.164;-3.124;2022-08-01T06:12:45;7.40;;;2.03;;
47009;SDS011;59230;54.164;-3.124;2022-08-01T06:15:10;10.90;;;2.55;;
47009;SDS011;59230;54.164;-3.124;2022-08-01T06:17:36;15.65;;;2.55;;
47009;SDS011;59230;54.164;-3.124;2022-08-01T06:20:02;16.67;;;2.42;;
47009;SDS011;59230;54.164;-3.124;2022-08-01T06:22:28;18.48;;;2.90;;
47009;SDS011;59230;54.164;-3.124;2022-08-01T06:24:54;12.68;;;2.40;;
47009;SDS011;59230;54.164;-3.124;2022-08-01T06:27:19;16.23;;;2.50;;
47009;SDS011;59230;54.164;-3.124;2022-08-01T06:29:45;13.13;;;2.47;;
47009;SDS011;59230;54.164;-3.124;2022-08-01T06:34:58;14.25;;;2.55;;
47009;SDS011;59230;54.164;-3.124;2022-08-01T06:37:27;16.90;;;3.17;;
47009;SDS011;59230;54.164;-3.124;2022-08-01T06:39:53;19.85;;;2.80;;
47009;SDS011;59230;54.164;-3.124;2022-08-01T06:42:19;15.95;;;2.30;;
47009;SDS011;59230;54.164;-3.124;2022-08-01T06:44:45;14.73;;;2.67;;
47009;SDS011;59230;54.164;-3.124;2022-08-01T06:47:10;17.08;;;3.15;;
47009;SDS011;59230;54.164;-3.124;2022-08-01T06:49:36;15.10;;;2.13;;
47009;SDS011;59230;54.164;-3.124;2022-08-01T06:52:01;13.90;;;2.33;;
47009;SDS011;59230;54.164;-3.124;2022-08-01T06:54:28;13.68;;;2.25;;
47009;SDS011;59230;54.164;-3.124;2022-08-01T06:56:54;16.48;;;2.58;;
47009;SDS011;59230;54.164;-3.124;2022-08-01T06:59:19;15.60;;;2.53;;
47009;SDS011;59230;54.164;-3.124;2022-08-01T07:01:45;15.32;;;2.55;;
47009;SDS011;59230;54.164;-3.124;2022-08-01T07:04:10;14.57;;;1.77;;
47009;SDS011;59230;54.164;-3.124;2022-08-01T07:06:36;20.45;;;2.75;;
47009;SDS011;59230;54.164;-3.124;2022-08-01T07:09:01;15.95;;;1.92;;
47009;SDS011;59230;54.164;-3.124;2022-08-01T07:11:27;12.93;;;1.55;;
47009;SDS011;59230;54.164;-3.124;2022-08-01T07:13:52;9.82;;;1.80;;
47009;SDS011;59230;54.164;-3.124;2022-08-01T07:16:18;10.15;;;1.95;;
47009;SDS011;59230;54.164;-3.124;2022-08-01T07:18:43;17.55;;;2.42;;
47009;SDS011;59230;54.164;-3.124;2022-08-01T07:21:09;10.82;;;2.05;;
47009;SDS011;59230;54.164;-3.124;2022-08-01T07:23:35;8.68;;;1.83;;
47009;SDS011;59230;54.164;-3.124;2022-08-01T07:37:00;9.45;;;1.60;;
47009;SDS011;59230;54.164;-3.124;2022-08-01T07:39:25;11.70;;;1.70;;
47009;SDS011;59230;54.164;-3.124;2022-08-01T07:41:51;7.15;;;1.77;;
47009;SDS011;59230;54.164;-3.124;2022-08-01T07:44:16;8.13;;;1.60;;
47009;SDS011;59230;54.164;-3.124;2022-08-01T07:46:42;16.25;;;1.90;;
47009;SDS011;59230;54.164;-3.124;2022-08-01T07:49:07;10.98;;;2.13;;
47009;SDS011;59230;54.164;-3.124;2022-08-01T07:51:33;12.75;;;2.03;;
47009;SDS011;59230;54.164;-3.124;2022-08-01T07:53:58;6.57;;;1.40;;
47009;SDS011;59230;54.164;-3.124;2022-08-01T07:56:24;11.05;;;1.60;;
47009;SDS011;59230;54.164;-3.124;2022-08-01T07:58:50;13.68;;;2.40;;
47009;SDS011;59230;54.164;-3.124;2022-08-01T08:01:16;10.48;;;1.60;;
47009;SDS011;59230;54.164;-3.124;2022-08-01T08:03:41;12.65;;;1.58;;
47009;SDS011;59230;54.164;-3.124;2022-08-01T08:06:07;9.05;;;1.90;;
47009;SDS011;59230;54.164;-3.124;2022-08-01T08:08:32;12.85;;;2.00;;
47009;SDS011;59230;54.164;-3.124;2022-08-01T08:10:59;8.05;;;1.42;;
47009;SDS011;59230;54.164;-3.124;2022-08-01T08:13:25;9.02;;;1.70;;
47009;SDS011;59230;54.164;-3.124;2022-08-01T08:15:50;9.07;;;1.92;;
47009;SDS011;59230;54.164;-3.124;2022-08-01T08:18:16;15.02;;;1.90;;
47009;SDS011;59230;54.164;-3.124;2022-08-01T08:20:41;13.23;;;1.70;;
47009;SDS011;59230;54.164;-3.124;2022-08-01T08:23:07;12.95;;;2.03;;
47009;SDS011;59230;54.164;-3.124;2022-08-01T08:29:09;10.80;;;1.60;;
47009;SDS011;59230;54.164;-3.124;2022-08-01T08:31:36;13.20;;;2.20;;
47009;SDS011;59230;54.164;-3.124;2022-08-01T08:34:02;13.13;;;1.67;;
47009;SDS011;59230;54.164;-3.124;2022-08-01T08:36:28;12.80;;;2.15;;
47009;SDS011;59230;54.164;-3.124;2022-08-01T08:38:54;7.38;;;1.50;;
47009;SDS011;59230;54.164;-3.124;2022-08-01T08:43:51;7.38;;;1.60;;
47009;SDS011;59230;54.164;-3.124;2022-08-01T08:46:20;8.43;;;1.77;;
47009;SDS011;59230;54.164;-3.124;2022-08-01T08:48:49;10.82;;;2.33;;
47009;SDS011;59230;54.164;-3.124;2022-08-01T08:51:19;10.35;;;1.98;;
47009;SDS011;59230;54.164;-3.124;2022-08-01T08:53:45;11.30;;;2.20;;
47009;SDS011;59230;54.164;-3.124;2022-08-01T08:56:15;12.43;;;2.03;;
47009;SDS011;59230;54.164;-3.124;2022-08-01T08:58:43;11.80;;;1.77;;
47009;SDS011;59230;54.164;-3.124;2022-08-01T09:01:12;9.75;;;1.90;;
47009;SDS011;59230;54.164;-3.124;2022-08-01T09:03:40;9.77;;;1.50;;
47009;SDS011;59230;54.164;-3.124;2022-08-01T09:06:09;11.10;;;1.85;;
47009;SDS011;59230;54.164;-3.124;2022-08-01T09:08:36;12.10;;;1.92;;
47009;SDS011;59230;54.164;-3.124;2022-08-01T09:11:05;13.93;;;2.22;;
47009;SDS011;59230;54.164;-3.124;2022-08-01T09:13:34;13.02;;;2.53;;
47009;SDS011;59230;54.164;-3.124;2022-08-01T09:16:00;14.25;;;2.70;;
47009;SDS011;59230;54.164;-3.124;2022-08-01T09:18:35;14.77;;;2.58;;
47009;SDS011;59230;54.164;-3.124;2022-08-01T09:23:37;9.02;;;1.65;;
47009;SDS011;59230;54.164;-3.124;2022-08-01T09:26:17;10.60;;;1.85;;
47009;SDS011;59230;54.164;-3.124;2022-08-01T09:28:45;7.78;;;1.67;;
47009;SDS011;59230;54.164;-3.124;2022-08-01T09:31:16;10.85;;;1.65;;
47009;SDS011;59230;54.164;-3.124;2022-08-01T09:34:00;6.43;;;1.40;;
47009;SDS011;59230;54.164;-3.124;2022-08-01T09:39:16;8.93;;;1.50;;
47009;SDS011;59230;54.164;-3.124;2022-08-01T09:45:32;9.32;;;1.65;;
47009;SDS011;59230;54.164;-3.124;2022-08-01T09:48:05;9.48;;;1.88;;
47009;SDS011;59230;54.164;-3.124;2022-08-01T09:50:39;9.40;;;2.03;;
47009;SDS011;59230;54.164;-3.124;2022-08-01T09:53:09;9.73;;;1.60;;
47009;SDS011;59230;54.164;-3.124;2022-08-01T09:55:36;8.57;;;1.58;;
47009;SDS011;59230;54.164;-3.124;2022-08-01T09:58:03;7.80;;;1.48;;
47009;SDS011;59230;54.164;-3.124;2022-08-01T10:00:32;10.43;;;1.65;;
47009;SDS011;59230;54.164;-3.124;2022-08-01T10:03:18;9.25;;;1.85;;
47009;SDS011;59230;54.164;-3.124;2022-08-01T10:12:17;6.35;;;1.65;;
47009;SDS011;59230;54.164;-3.124;2022-08-01T10:14:44;5.43;;;1.30;;
47009;SDS011;59230;54.164;-3.124;2022-08-01T10:17:14;7.32;;;1.65;;
47009;SDS011;59230;54.164;-3.124;2022-08-01T10:19:41;7.68;;;1.58;;
47009;SDS011;59230;54.164;-3.124;2022-08-01T10:22:15;4.80;;;1.58;;
47009;SDS011;59230;54.164;-3.124;2022-08-01T10:24:47;5.78;;;1.45;;
47009;SDS011;59230;54.164;-3.124;2022-08-01T10:27:17;5.88;;;1.20;;
47009;SDS011;59230;54.164;-3.124;2022-08-01T10:30:03;6.68;;;1.30;;
47009;SDS011;59230;54.164;-3.124;2022-08-01T10:32:35;4.95;;;1.58;;
47009;SDS011;59230;54.164;-3.124;2022-08-01T10:35:02;3.97;;;1.48;;
47009;SDS011;59230;54.164;-3.124;2022-08-01T10:37:32;5.50;;;1.60;;
47009;SDS011;59230;54.164;-3.124;2022-08-01T10:40:17;6.45;;;1.52;;
47009;SDS011;59230;54.164;-3.124;2022-08-01T10:42:47;6.28;;;1.42;;
47009;SDS011;59230;54.164;-3.124;2022-08-01T10:45:13;4.43;;;1.25;;
47009;SDS011;59230;54.164;-3.124;2022-08-01T10:57:43;9.02;;;1.38;;
47009;SDS011;59230;54.164;-3.124;2022-08-01T11:00:13;6.65;;;1.30;;
47009;SDS011;59230;54.164;-3.124;2022-08-01T11:03:05;3.70;;;1.05;;
47009;SDS011;59230;54.164;-3.124;2022-08-01T11:05:33;3.42;;;1.67;;
47009;SDS011;59230;54.164;-3.124;2022-08-01T11:08:05;5.25;;;1.40;;
47009;SDS011;59230;54.164;-3.124;2022-08-01T11:10:38;5.85;;;1.55;;
47009;SDS011;59230;54.164;-3.124;2022-08-01T11:13:10;5.60;;;1.50;;
47009;SDS011;59230;54.164;-3.124;2022-08-01T11:15:39;3.03;;;1.10;;
47009;SDS011;59230;54.164;-3.124;2022-08-01T11:20:58;3.22;;;1.13;;
47009;SDS011;59230;54.164;-3.124;2022-08-01T11:23:27;3.30;;;1.25;;
47009;SDS011;59230;54.164;-3.124;2022-08-01T11:28:27;2.78;;;1.25;;
47009;SDS011;59230;54.164;-3.124;2022-08-01T11:36:25;3.20;;;1.30;;
47009;SDS011;59230;54.164;-3.124;2022-08-01T11:41:24;2.95;;;1.30;;
47009;SDS011;59230;54.164;-3.124;2022-08-01T11:53:23;3.42;;;1.15;;
47009;SDS011;59230;54.164;-3.124;2022-08-01T11:55:53;6.38;;;1.40;;
47009;SDS011;59230;54.164;-3.124;2022-08-01T11:58:22;3.05;;;1.15;;
47009;SDS011;59230;54.164;-3.124;2022-08-01T12:00:51;3.85;;;1.75;;
47009;SDS011;59230;54.164;-3.124;2022-08-01T12:03:30;3.53;;;1.30;;
47009;SDS011;59230;54.164;-3.124;2022-08-01T12:05:58;5.68;;;1.00;;
47009;SDS011;59230;54.164;-3.124;2022-08-01T12:08:30;3.80;;;1.40;;
47009;SDS011;59230;54.164;-3.124;2022-08-01T12:11:03;2.38;;;1.10;;
47009;SDS011;59230;54.164;-3.124;2022-08-01T12:13:40;4.22;;;1.55;;
47009;SDS011;59230;54.164;-3.124;2022-08-01T12:16:08;2.58;;;1.33;;
47009;SDS011;59230;54.164;-3.124;2022-08-01T12:18:40;4.22;;;1.60;;
47009;SDS011;59230;54.164;-3.124;2022-08-01T12:21:10;2.67;;;1.50;;
47009;SDS011;59230;54.164;-3.124;2022-08-01T12:23:38;4.85;;;1.42;;
47009;SDS011;59230;54.164;-3.124;2022-08-01T12:26:04;4.70;;;1.55;;
47009;SDS011;59230;54.164;-3.124;2022-08-01T12:28:38;5.43;;;1.40;;
47009;SDS011;59230;54.164;-3.124;2022-08-01T12:31:05;5.03;;;1.60;;
47009;SDS011;59230;54.164;-3.124;2022-08-01T12:33:33;2.58;;;1.30;;
47009;SDS011;59230;54.164;-3.124;2022-08-01T12:35:58;2.53;;;1.10;;
47009;SDS011;59230;54.164;-3.124;2022-08-01T12:38:25;2.65;;;1.20;;
47009;SDS011;59230;54.164;-3.124;2022-08-01T12:40:54;2.67;;;1.52;;
47009;SDS011;59230;54.164;-3.124;2022-08-01T12:43:21;4.25;;;3.08;;
47009;SDS011;59230;54.164;-3.124;2022-08-01T12:45:51;3.20;;;1.38;;
47009;SDS011;59230;54.164;-3.124;2022-08-01T12:48:19;2.72;;;1.15;;
47009;SDS011;59230;54.164;-3.124;2022-08-01T12:50:48;2.97;;;1.30;;
47009;SDS011;59230;54.164;-3.124;2022-08-01T12:53:17;3.45;;;1.30;;
47009;SDS011;59230;54.164;-3.124;2022-08-01T12:55:50;4.30;;;1.60;;
47009;SDS011;59230;54.164;-3.124;2022-08-01T12:58:29;5.10;;;1.27;;
47009;SDS011;59230;54.164;-3.124;2022-08-01T13:05:17;2.75;;;1.48;;
47009;SDS011;59230;54.164;-3.124;2022-08-01T13:10:24;3.78;;;1.50;;
47009;SDS011;59230;54.164;-3.124;2022-08-01T13:12:54;4.80;;;1.42;;
47009;SDS011;59230;54.164;-3.124;2022-08-01T13:18:25;3.35;;;1.40;;
47009;SDS011;59230;54.164;-3.124;2022-08-01T13:21:13;3.15;;;1.70;;
47009;SDS011;59230;54.164;-3.124;2022-08-01T13:23:41;2.83;;;1.10;;
47009;SDS011;59230;54.164;-3.124;2022-08-01T13:26:10;2.42;;;1.23;;
47009;SDS011;59230;54.164;-3.124;2022-08-01T13:28:37;2.47;;;1.10;;
47009;SDS011;59230;54.164;-3.124;2022-08-01T13:34:01;1.67;;;0.95;;
47009;SDS011;59230;54.164;-3.124;2022-08-01T13:43:07;1.92;;;1.30;;
47009;SDS011;59230;54.164;-3.124;2022-08-01T13:45:33;3.45;;;1.42;;
47009;SDS011;59230;54.164;-3.124;2022-08-01T13:47:59;3.85;;;1.50;;
47009;SDS011;59230;54.164;-3.124;2022-08-01T13:50:25;2.10;;;1.13;;
47009;SDS011;59230;54.164;-3.124;2022-08-01T13:52:53;3.53;;;1.30;;
47009;SDS011;59230;54.164;-3.124;2022-08-01T13:55:46;1.42;;;1.20;;
47009;SDS011;59230;54.164;-3.124;2022-08-01T13:58:12;3.72;;;1.40;;
47009;SDS011;59230;54.164;-3.124;2022-08-01T14:00:38;4.30;;;1.30;;
47009;SDS011;59230;54.164;-3.124;2022-08-01T14:03:03;5.63;;;1.30;;
47009;SDS011;59230;54.164;-3.124;2022-08-01T14:05:31;5.68;;;1.77;;
47009;SDS011;59230;54.164;-3.124;2022-08-01T14:08:08;3.60;;;1.35;;
47009;SDS011;59230;54.164;-3.124;2022-08-01T14:11:13;4.53;;;1.17;;
47009;SDS011;59230;54.164;-3.124;2022-08-01T14:14:06;4.10;;;1.20;;
47009;SDS011;59230;54.164;-3.124;2022-08-01T14:16:53;3.75;;;1.35;;
47009;SDS011;59230;54.164;-3.124;2022-08-01T14:19:36;2.25;;;1.33;;
47009;SDS011;59230;54.164;-3.124;2022-08-01T14:22:01;3.10;;;1.65;;
47009;SDS011;59230;54.164;-3.124;2022-08-01T14:24:27;3.55;;;1.50;;
47009;SDS011;59230;54.164;-3.124;2022-08-01T14:26:52;3.53;;;1.20;;
47009;SDS011;59230;54.164;-3.124;2022-08-01T14:29:21;2.65;;;1.10;;
47009;SDS011;59230;54.164;-3.124;2022-08-01T14:31:47;4.88;;;1.60;;
47009;SDS011;59230;54.164;-3.124;2022-08-01T14:34:12;2.05;;;1.00;;
47009;SDS011;59230;54.164;-3.124;2022-08-01T14:36:59;6.78;;;1.52;;
47009;SDS011;59230;54.164;-3.124;2022-08-01T14:39:25;4.20;;;1.17;;
47009;SDS011;59230;54.164;-3.124;2022-08-01T14:41:50;6.63;;;1.30;;
47009;SDS011;59230;54.164;-3.124;2022-08-01T14:47:46;2.72;;;1.30;;
47009;SDS011;59230;54.164;-3.124;2022-08-01T14:50:14;7.95;;;1.40;;
47009;SDS011;59230;54.164;-3.124;2022-08-01T14:52:41;5.30;;;1.10;;
47009;SDS011;59230;54.164;-3.124;2022-08-01T14:55:10;4.00;;;1.20;;
47009;SDS011;59230;54.164;-3.124;2022-08-01T15:00:39;2.33;;;1.20;;
47009;SDS011;59230;54.164;-3.124;2022-08-01T15:03:11;3.72;;;1.33;;
47009;SDS011;59230;54.164;-3.124;2022-08-01T15:05:37;5.13;;;1.10;;
47009;SDS011;59230;54.164;-3.124;2022-08-01T15:10:57;9.38;;;1.40;;
47009;SDS011;59230;54.164;-3.124;2022-08-01T15:13:23;4.15;;;1.25;;
47009;SDS011;59230;54.164;-3.124;2022-08-01T15:15:48;2.45;;;1.30;;
47009;SDS011;59230;54.164;-3.124;2022-08-01T15:18:14;6.78;;;1.30;;
47009;SDS011;59230;54.164;-3.124;2022-08-01T15:20:39;4.40;;;1.10;;
47009;SDS011;59230;54.164;-3.124;2022-08-01T15:23:05;3.28;;;1.50;;
47009;SDS011;59230;54.164;-3.124;2022-08-01T15:25:31;5.80;;;1.30;;
47009;SDS011;59230;54.164;-3.124;2022-08-01T15:27:56;3.80;;;1.38;;
47009;SDS011;59230;54.164;-3.124;2022-08-01T15:30:22;3.20;;;1.13;;
47009;SDS011;59230;54.164;-3.124;2022-08-01T15:32:47;5.75;;;1.25;;
47009;SDS011;59230;54.164;-3.124;2022-08-01T15:35:13;3.20;;;1.48;;
47009;SDS011;59230;54.164;-3.124;2022-08-01T15:37:39;5.43;;;1.73;;
47009;SDS011;59230;54.164;-3.124;2022-08-01T15:40:05;4.43;;;1.33;;
47009;SDS011;59230;54.164;-3.124;2022-08-01T15:42:30;3.08;;;1.38;;
47009;SDS011;59230;54.164;-3.124;2022-08-01T15:44:56;2.55;;;1.20;;
47009;SDS011;59230;54.164;-3.124;2022-08-01T15:47:21;3.05;;;1.65;;
47009;SDS011;59230;54.164;-3.124;2022-08-01T15:49:47;3.28;;;1.60;;
47009;SDS011;59230;54.164;-3.124;2022-08-01T15:52:12;5.00;;;1.70;;
47009;SDS011;59230;54.164;-3.124;2022-08-01T15:54:38;3.03;;;1.60;;
47009;SDS011;59230;54.164;-3.124;2022-08-01T15:57:05;5.18;;;1.52;;
47009;SDS011;59230;54.164;-3.124;2022-08-01T15:59:31;12.35;;;1.60;;
47009;SDS011;59230;54.164;-3.124;2022-08-01T16:01:56;3.88;;;1.80;;
47009;SDS011;59230;54.164;-3.124;2022-08-01T16:04:24;5.57;;;1.33;;
47009;SDS011;59230;54.164;-3.124;2022-08-01T16:09:53;2.13;;;1.10;;
47009;SDS011;59230;54.164;-3.124;2022-08-01T16:12:19;8.35;;;2.63;;
47009;SDS011;59230;54.164;-3.124;2022-08-01T16:14:44;6.85;;;1.75;;
47009;SDS011;59230;54.164;-3.124;2022-08-01T16:17:10;3.90;;;1.33;;
47009;SDS011;59230;54.164;-3.124;2022-08-01T16:19:38;2.17;;;1.20;;
47009;SDS011;59230;54.164;-3.124;2022-08-01T16:22:08;3.85;;;1.40;;